sensor_id;sensor_type;location;lat;lon;timestamp;pressure;altitude;pressure_sealevel;temperature;humidity
75497;BME280;64074;47.540;19.072;2023-08-31T00:01:46;99856.97;;;17.86;70.80
75497;BME280;64074;47.540;19.072;2023-08-31T00:04:52;99865.06;;;18.14;69.97
75497;BME280;64074;47.540;19.072;2023-08-31T00:07:57;99864.47;;;17.89;70.56
75497;BME280;64074;47.540;19.072;2023-08-31T00:11:00;99860.53;;;18.06;70.44
75497;BME280;64074;47.540;19.072;2023-08-31T00:14:04;99859.78;;;18.25;69.63
75497;BME280;64074;47.540;19.072;2023-08-31T00:17:06;99853.03;;;18.03;70.39
75497;BME280;64074;47.540;19.072;2023-08-31T00:20:09;99851.22;;;17.75;71.16
75497;BME280;64074;47.540;19.072;2023-08-31T00:23:16;99853.38;;;18.01;70.32
75497;BME280;64074;47.540;19.072;2023-08-31T00:26:20;99849.97;;;17.89;70.78
75497;BME280;64074;47.540;19.072;2023-08-31T00:29:24;99866.00;;;18.22;69.87
75497;BME280;64074;47.540;19.072;2023-08-31T00:32:27;99864.78;;;18.19;69.92
75497;BME280;64074;47.540;19.072;2023-08-31T00:35:33;99875.81;;;18.23;69.95
75497;BME280;64074;47.540;19.072;2023-08-31T00:38:37;99868.03;;;18.25;69.72
75497;BME280;64074;47.540;19.072;2023-08-31T00:41:40;99856.09;;;18.17;69.64
75497;BME280;64074;47.540;19.072;2023-08-31T00:44:42;99862.66;;;18.12;69.99
75497;BME280;64074;47.540;19.072;2023-08-31T00:47:46;99861.78;;;18.08;70.15
75497;BME280;64074;47.540;19.072;2023-08-31T00:50:50;99860.50;;;18.22;69.97
75497;BME280;64074;47.540;19.072;2023-08-31T00:53:56;99851.19;;;18.26;69.66
75497;BME280;64074;47.540;19.072;2023-08-31T00:57:03;99862.09;;;17.88;70.79
75497;BME280;64074;47.540;19.072;2023-08-31T01:00:07;99854.44;;;18.12;70.35
75497;BME280;64074;47.540;19.072;2023-08-31T01:03:19;99856.75;;;17.95;70.32
75497;BME280;64074;47.540;19.072;2023-08-31T01:13:24;99875.19;;;17.78;70.68
75497;BME280;64074;47.540;19.072;2023-08-31T01:16:29;99877.75;;;17.12;73.33
75497;BME280;64074;47.540;19.072;2023-08-31T01:19:50;99874.06;;;17.20;73.56
75497;BME280;64074;47.540;19.072;2023-08-31T01:23:10;99871.97;;;17.61;71.68
75497;BME280;64074;47.540;19.072;2023-08-31T01:26:14;99871.72;;;17.66;71.43
75497;BME280;64074;47.540;19.072;2023-08-31T01:29:18;99879.78;;;17.90;71.08
75497;BME280;64074;47.540;19.072;2023-08-31T01:32:22;99883.69;;;17.89;70.83
75497;BME280;64074;47.540;19.072;2023-08-31T01:35:25;99887.66;;;17.92;70.60
75497;BME280;64074;47.540;19.072;2023-08-31T01:38:30;99896.16;;;17.71;71.23
75497;BME280;64074;47.540;19.072;2023-08-31T01:41:37;99903.94;;;17.25;72.60
75497;BME280;64074;47.540;19.072;2023-08-31T01:44:45;99903.25;;;17.44;71.73
75497;BME280;64074;47.540;19.072;2023-08-31T01:47:52;99901.00;;;17.62;71.26
75497;BME280;64074;47.540;19.072;2023-08-31T01:50:55;99904.38;;;17.71;70.77
75497;BME280;64074;47.540;19.072;2023-08-31T01:53:58;99893.44;;;17.59;71.40
75497;BME280;64074;47.540;19.072;2023-08-31T01:57:02;99891.25;;;17.64;70.33
75497;BME280;64074;47.540;19.072;2023-08-31T02:00:09;99891.25;;;17.64;70.84
75497;BME280;64074;47.540;19.072;2023-08-31T02:03:18;99891.47;;;17.71;70.35
75497;BME280;64074;47.540;19.072;2023-08-31T02:06:21;99895.81;;;17.88;69.92
75497;BME280;64074;47.540;19.072;2023-08-31T02:09:24;99894.91;;;17.84;69.80
75497;BME280;64074;47.540;19.072;2023-08-31T02:12:27;99892.25;;;17.88;69.98
75497;BME280;64074;47.540;19.072;2023-08-31T02:15:31;99897.56;;;17.96;69.38
75497;BME280;64074;47.540;19.072;2023-08-31T02:18:34;99905.41;;;17.82;69.69
75497;BME280;64074;47.540;19.072;2023-08-31T02:21:37;99904.72;;;17.69;69.81
75497;BME280;64074;47.540;19.072;2023-08-31T02:24:41;99899.06;;;17.78;69.59
75497;BME280;64074;47.540;19.072;2023-08-31T02:27:44;99905.75;;;17.49;70.48
75497;BME280;64074;47.540;19.072;2023-08-31T02:30:57;99906.63;;;17.53;70.34
75497;BME280;64074;47.540;19.072;2023-08-31T02:34:06;99913.41;;;17.71;69.48
75497;BME280;64074;47.540;19.072;2023-08-31T02:37:09;99905.91;;;17.56;69.86
75497;BME280;64074;47.540;19.072;2023-08-31T02:40:14;99896.81;;;17.36;70.51
75497;BME280;64074;47.540;19.072;2023-08-31T02:43:18;99901.66;;;17.43;70.16
75497;BME280;64074;47.540;19.072;2023-08-31T02:46:24;99896.09;;;17.39;69.98
75497;BME280;64074;47.540;19.072;2023-08-31T02:49:27;99899.06;;;17.34;70.26
75497;BME280;64074;47.540;19.072;2023-08-31T02:52:31;99909.50;;;17.29;70.52
75497;BME280;64074;47.540;19.072;2023-08-31T02:55:34;99904.94;;;17.48;70.20
75497;BME280;64074;47.540;19.072;2023-08-31T02:58:37;99911.63;;;17.19;70.99
75497;BME280;64074;47.540;19.072;2023-08-31T03:01:43;99906.81;;;17.44;70.04
75497;BME280;64074;47.540;19.072;2023-08-31T03:04:50;99914.31;;;17.47;69.96
75497;BME280;64074;47.540;19.072;2023-08-31T03:07:53;99913.91;;;17.61;69.67
75497;BME280;64074;47.540;19.072;2023-08-31T03:10:57;99917.53;;;17.21;71.05
75497;BME280;64074;47.540;19.072;2023-08-31T03:14:00;99918.03;;;17.39;70.28
75497;BME280;64074;47.540;19.072;2023-08-31T03:17:04;99921.13;;;17.38;70.50
75497;BME280;64074;47.540;19.072;2023-08-31T03:20:07;99913.59;;;17.50;69.93
75497;BME280;64074;47.540;19.072;2023-08-31T03:23:10;99909.09;;;17.58;69.65
75497;BME280;64074;47.540;19.072;2023-08-31T03:26:14;99918.34;;;17.22;70.70
75497;BME280;64074;47.540;19.072;2023-08-31T03:29:18;99921.78;;;17.35;70.96
75497;BME280;64074;47.540;19.072;2023-08-31T03:32:22;99908.84;;;17.47;70.30
75497;BME280;64074;47.540;19.072;2023-08-31T03:35:26;99914.63;;;17.30;70.71
75497;BME280;64074;47.540;19.072;2023-08-31T03:38:32;99927.19;;;17.31;70.79
75497;BME280;64074;47.540;19.072;2023-08-31T03:41:36;99932.03;;;16.94;72.29
75497;BME280;64074;47.540;19.072;2023-08-31T03:44:42;99935.13;;;16.92;72.70
75497;BME280;64074;47.540;19.072;2023-08-31T03:47:46;99945.22;;;17.32;71.40
75497;BME280;64074;47.540;19.072;2023-08-31T03:50:53;99942.06;;;17.46;70.63
75497;BME280;64074;47.540;19.072;2023-08-31T03:53:57;99944.72;;;17.42;70.71
75497;BME280;64074;47.540;19.072;2023-08-31T03:57:02;99942.63;;;17.23;71.58
75497;BME280;64074;47.540;19.072;2023-08-31T04:00:06;99949.00;;;17.28;71.92
75497;BME280;64074;47.540;19.072;2023-08-31T04:03:15;99946.25;;;17.12;71.79
75497;BME280;64074;47.540;19.072;2023-08-31T04:06:20;99948.63;;;16.85;72.81
75497;BME280;64074;47.540;19.072;2023-08-31T04:09:23;99944.03;;;16.89;72.43
75497;BME280;64074;47.540;19.072;2023-08-31T04:12:26;99957.03;;;16.92;72.89
75497;BME280;64074;47.540;19.072;2023-08-31T04:15:29;99959.81;;;17.08;72.17
75497;BME280;64074;47.540;19.072;2023-08-31T04:18:34;99952.69;;;16.91;72.74
75497;BME280;64074;47.540;19.072;2023-08-31T04:21:37;99956.50;;;17.15;72.20
75497;BME280;64074;47.540;19.072;2023-08-31T04:24:42;99960.84;;;17.32;71.41
75497;BME280;64074;47.540;19.072;2023-08-31T04:27:45;99966.91;;;17.37;71.30
75497;BME280;64074;47.540;19.072;2023-08-31T04:30:48;99963.72;;;17.35;70.99
75497;BME280;64074;47.540;19.072;2023-08-31T04:33:51;99967.25;;;17.36;71.05
75497;BME280;64074;47.540;19.072;2023-08-31T04:36:57;99964.44;;;17.48;70.92
75497;BME280;64074;47.540;19.072;2023-08-31T04:40:00;99974.22;;;17.33;70.92
75497;BME280;64074;47.540;19.072;2023-08-31T04:43:03;99981.94;;;17.43;70.79
75497;BME280;64074;47.540;19.072;2023-08-31T04:46:06;99983.00;;;17.39;70.55
75497;BME280;64074;47.540;19.072;2023-08-31T04:49:10;99986.13;;;17.53;69.87
75497;BME280;64074;47.540;19.072;2023-08-31T04:52:13;99994.53;;;17.32;70.11
75497;BME280;64074;47.540;19.072;2023-08-31T04:55:15;100002.22;;;17.54;69.60
75497;BME280;64074;47.540;19.072;2023-08-31T04:58:18;100007.56;;;17.35;69.95
75497;BME280;64074;47.540;19.072;2023-08-31T05:01:21;100007.78;;;17.70;69.12
75497;BME280;64074;47.540;19.072;2023-08-31T05:04:25;100009.63;;;17.82;68.98
75497;BME280;64074;47.540;19.072;2023-08-31T05:07:29;100021.53;;;17.86;68.60
75497;BME280;64074;47.540;19.072;2023-08-31T05:10:32;100022.31;;;18.02;68.32
75497;BME280;64074;47.540;19.072;2023-08-31T05:13:35;100032.13;;;17.88;68.42
75497;BME280;64074;47.540;19.072;2023-08-31T05:16:37;100031.75;;;17.73;68.19
75497;BME280;64074;47.540;19.072;2023-08-31T05:19:41;100035.28;;;17.74;67.97
75497;BME280;64074;47.540;19.072;2023-08-31T05:22:43;100042.13;;;17.96;67.74
75497;BME280;64074;47.540;19.072;2023-08-31T05:25:47;100047.09;;;17.62;68.07
75497;BME280;64074;47.540;19.072;2023-08-31T05:28:50;100044.31;;;17.74;68.04
75497;BME280;64074;47.540;19.072;2023-08-31T05:31:54;100040.41;;;17.75;67.25
75497;BME280;64074;47.540;19.072;2023-08-31T05:34:57;100053.47;;;17.66;67.89
75497;BME280;64074;47.540;19.072;2023-08-31T05:38:02;100057.19;;;17.46;68.30
75497;BME280;64074;47.540;19.072;2023-08-31T05:41:07;100064.00;;;17.52;68.58
75497;BME280;64074;47.540;19.072;2023-08-31T05:44:11;100072.13;;;17.61;68.49
75497;BME280;64074;47.540;19.072;2023-08-31T05:47:14;100068.00;;;17.54;68.71
75497;BME280;64074;47.540;19.072;2023-08-31T05:50:17;100066.19;;;17.87;67.98
75497;BME280;64074;47.540;19.072;2023-08-31T05:53:20;100069.84;;;18.06;68.07
75497;BME280;64074;47.540;19.072;2023-08-31T05:56:23;100064.56;;;18.13;67.53
75497;BME280;64074;47.540;19.072;2023-08-31T05:59:27;100084.28;;;17.75;68.10
75497;BME280;64074;47.540;19.072;2023-08-31T06:02:30;100082.22;;;17.85;68.08
75497;BME280;64074;47.540;19.072;2023-08-31T06:05:33;100089.16;;;18.26;67.55
75497;BME280;64074;47.540;19.072;2023-08-31T06:08:37;100090.38;;;17.97;68.19
75497;BME280;64074;47.540;19.072;2023-08-31T06:11:40;100092.66;;;18.38;66.99
75497;BME280;64074;47.540;19.072;2023-08-31T06:14:43;100100.78;;;18.35;66.38
75497;BME280;64074;47.540;19.072;2023-08-31T06:17:46;100096.34;;;18.46;66.46
75497;BME280;64074;47.540;19.072;2023-08-31T06:20:49;100103.38;;;18.59;66.03
75497;BME280;64074;47.540;19.072;2023-08-31T06:23:52;100105.59;;;18.85;65.04
75497;BME280;64074;47.540;19.072;2023-08-31T06:26:55;100106.44;;;19.05;64.19
75497;BME280;64074;47.540;19.072;2023-08-31T06:29:59;100117.75;;;19.19;64.35
75497;BME280;64074;47.540;19.072;2023-08-31T06:33:02;100119.44;;;19.08;63.89
75497;BME280;64074;47.540;19.072;2023-08-31T06:36:05;100114.66;;;19.21;64.06
75497;BME280;64074;47.540;19.072;2023-08-31T06:39:08;100110.78;;;19.41;63.29
75497;BME280;64074;47.540;19.072;2023-08-31T06:42:12;100124.03;;;19.35;63.31
75497;BME280;64074;47.540;19.072;2023-08-31T06:45:15;100129.66;;;19.58;62.63
75497;BME280;64074;47.540;19.072;2023-08-31T06:48:18;100122.25;;;18.77;64.16
75497;BME280;64074;47.540;19.072;2023-08-31T06:51:21;100138.19;;;18.71;64.39
75497;BME280;64074;47.540;19.072;2023-08-31T06:54:26;100124.50;;;19.06;64.03
75497;BME280;64074;47.540;19.072;2023-08-31T06:57:30;100122.84;;;19.01;63.87
75497;BME280;64074;47.540;19.072;2023-08-31T07:00:33;100116.75;;;18.77;64.78
75497;BME280;64074;47.540;19.072;2023-08-31T07:03:37;100126.09;;;19.07;63.95
75497;BME280;64074;47.540;19.072;2023-08-31T07:06:40;100130.91;;;19.10;64.14
75497;BME280;64074;47.540;19.072;2023-08-31T07:09:46;100136.47;;;19.14;63.93
75497;BME280;64074;47.540;19.072;2023-08-31T07:12:49;100143.13;;;19.48;63.15
75497;BME280;64074;47.540;19.072;2023-08-31T07:15:52;100136.81;;;19.63;62.82
75497;BME280;64074;47.540;19.072;2023-08-31T07:18:56;100141.44;;;19.78;62.26
75497;BME280;64074;47.540;19.072;2023-08-31T07:22:00;100139.22;;;19.84;61.81
75497;BME280;64074;47.540;19.072;2023-08-31T07:25:04;100146.31;;;19.85;61.39
75497;BME280;64074;47.540;19.072;2023-08-31T07:28:09;100148.63;;;19.83;61.58
75497;BME280;64074;47.540;19.072;2023-08-31T07:31:13;100157.63;;;20.22;60.01
75497;BME280;64074;47.540;19.072;2023-08-31T07:34:18;100150.59;;;20.44;59.08
75497;BME280;64074;47.540;19.072;2023-08-31T07:37:21;100154.59;;;20.46;59.05
75497;BME280;64074;47.540;19.072;2023-08-31T07:40:28;100156.91;;;20.44;58.80
75497;BME280;64074;47.540;19.072;2023-08-31T07:43:32;100155.22;;;20.40;58.31
75497;BME280;64074;47.540;19.072;2023-08-31T07:46:35;100157.47;;;20.53;57.75
75497;BME280;64074;47.540;19.072;2023-08-31T07:49:38;100155.13;;;20.13;58.39
75497;BME280;64074;47.540;19.072;2023-08-31T07:52:41;100149.25;;;20.57;57.84
75497;BME280;64074;47.540;19.072;2023-08-31T07:55:55;100160.25;;;20.34;57.96
75497;BME280;64074;47.540;19.072;2023-08-31T07:58:59;100151.34;;;20.41;57.61
75497;BME280;64074;47.540;19.072;2023-08-31T08:02:03;100170.41;;;20.11;58.96
75497;BME280;64074;47.540;19.072;2023-08-31T08:05:08;100161.25;;;20.26;58.36
75497;BME280;64074;47.540;19.072;2023-08-31T08:08:12;100173.38;;;20.41;57.87
75497;BME280;64074;47.540;19.072;2023-08-31T08:11:15;100169.31;;;20.35;57.98
75497;BME280;64074;47.540;19.072;2023-08-31T08:14:19;100172.53;;;20.60;57.71
75497;BME280;64074;47.540;19.072;2023-08-31T08:17:22;100165.06;;;20.60;58.26
75497;BME280;64074;47.540;19.072;2023-08-31T08:20:27;100174.44;;;21.05;57.38
75497;BME280;64074;47.540;19.072;2023-08-31T08:23:35;100183.47;;;21.02;57.05
75497;BME280;64074;47.540;19.072;2023-08-31T08:26:38;100193.66;;;20.75;57.57
75497;BME280;64074;47.540;19.072;2023-08-31T08:29:41;100196.03;;;20.99;57.37
75497;BME280;64074;47.540;19.072;2023-08-31T08:32:44;100184.81;;;21.34;56.34
75497;BME280;64074;47.540;19.072;2023-08-31T08:35:48;100192.28;;;21.34;56.30
75497;BME280;64074;47.540;19.072;2023-08-31T08:38:51;100184.16;;;21.44;55.81
75497;BME280;64074;47.540;19.072;2023-08-31T08:46:59;100191.75;;;21.81;54.50
75497;BME280;64074;47.540;19.072;2023-08-31T08:50:03;100184.72;;;22.17;54.26
75497;BME280;64074;47.540;19.072;2023-08-31T08:53:07;100204.06;;;21.87;55.07
75497;BME280;64074;47.540;19.072;2023-08-31T08:56:13;100192.59;;;22.15;53.62
75497;BME280;64074;47.540;19.072;2023-08-31T08:59:17;100215.78;;;22.40;53.43
75497;BME280;64074;47.540;19.072;2023-08-31T09:02:21;100203.97;;;22.44;52.60
75497;BME280;64074;47.540;19.072;2023-08-31T09:05:25;100212.88;;;22.30;53.64
75497;BME280;64074;47.540;19.072;2023-08-31T09:08:28;100222.56;;;22.13;52.22
75497;BME280;64074;47.540;19.072;2023-08-31T09:11:38;100213.84;;;22.45;52.05
75497;BME280;64074;47.540;19.072;2023-08-31T09:14:41;100216.53;;;22.78;51.37
75497;BME280;64074;47.540;19.072;2023-08-31T09:17:43;100223.59;;;23.13;52.08
75497;BME280;64074;47.540;19.072;2023-08-31T09:20:48;100231.72;;;22.91;50.36
75497;BME280;64074;47.540;19.072;2023-08-31T09:23:58;100231.59;;;22.81;50.18
75497;BME280;64074;47.540;19.072;2023-08-31T09:27:01;100239.59;;;22.89;50.48
75497;BME280;64074;47.540;19.072;2023-08-31T09:30:06;100236.66;;;23.16;49.55
75497;BME280;64074;47.540;19.072;2023-08-31T09:33:14;100237.38;;;23.06;49.54
75497;BME280;64074;47.540;19.072;2023-08-31T09:36:22;100237.63;;;22.90;48.86
75497;BME280;64074;47.540;19.072;2023-08-31T09:39:35;100231.47;;;23.07;49.10
75497;BME280;64074;47.540;19.072;2023-08-31T09:42:39;100240.19;;;23.13;48.98
75497;BME280;64074;47.540;19.072;2023-08-31T09:45:42;100236.09;;;23.44;48.50
75497;BME280;64074;47.540;19.072;2023-08-31T09:48:49;100233.06;;;23.59;48.95
75497;BME280;64074;47.540;19.072;2023-08-31T09:51:55;100229.41;;;23.48;47.67
75497;BME280;64074;47.540;19.072;2023-08-31T09:55:02;100235.94;;;23.77;46.69
75497;BME280;64074;47.540;19.072;2023-08-31T09:58:07;100238.13;;;23.54;46.49
75497;BME280;64074;47.540;19.072;2023-08-31T10:01:18;100239.66;;;23.44;47.42
75497;BME280;64074;47.540;19.072;2023-08-31T10:04:34;100244.31;;;23.33;46.54
75497;BME280;64074;47.540;19.072;2023-08-31T10:07:37;100256.94;;;23.30;46.59
75497;BME280;64074;47.540;19.072;2023-08-31T10:10:41;100254.41;;;23.59;46.83
75497;BME280;64074;47.540;19.072;2023-08-31T10:13:47;100252.84;;;23.61;47.50
75497;BME280;64074;47.540;19.072;2023-08-31T10:16:57;100263.00;;;23.47;47.35
75497;BME280;64074;47.540;19.072;2023-08-31T10:20:03;100265.34;;;23.45;46.54
75497;BME280;64074;47.540;19.072;2023-08-31T10:23:07;100263.00;;;23.47;47.72
75497;BME280;64074;47.540;19.072;2023-08-31T10:26:12;100259.25;;;23.73;46.63
75497;BME280;64074;47.540;19.072;2023-08-31T10:29:26;100264.00;;;23.79;46.37
75497;BME280;64074;47.540;19.072;2023-08-31T10:32:34;100276.16;;;23.57;47.63
75497;BME280;64074;47.540;19.072;2023-08-31T10:35:49;100279.56;;;23.43;48.29
75497;BME280;64074;47.540;19.072;2023-08-31T10:42:00;100275.97;;;23.90;47.26
75497;BME280;64074;47.540;19.072;2023-08-31T10:45:06;100284.78;;;24.10;47.18
75497;BME280;64074;47.540;19.072;2023-08-31T10:48:09;100275.97;;;23.90;47.19
75497;BME280;64074;47.540;19.072;2023-08-31T10:51:16;100285.81;;;23.81;47.44
75497;BME280;64074;47.540;19.072;2023-08-31T10:57:31;100282.94;;;24.32;47.01
75497;BME280;64074;47.540;19.072;2023-08-31T11:00:51;100290.78;;;24.27;46.80
75497;BME280;64074;47.540;19.072;2023-08-31T11:03:59;100286.81;;;24.20;46.29
75497;BME280;64074;47.540;19.072;2023-08-31T11:07:19;100289.06;;;23.97;46.57
75497;BME280;64074;47.540;19.072;2023-08-31T11:10:26;100292.72;;;24.19;46.71
75497;BME280;64074;47.540;19.072;2023-08-31T11:13:32;100289.94;;;24.08;46.23
75497;BME280;64074;47.540;19.072;2023-08-31T11:16:38;100290.59;;;24.74;45.54
75497;BME280;64074;47.540;19.072;2023-08-31T11:19:44;100298.41;;;24.44;45.85
75497;BME280;64074;47.540;19.072;2023-08-31T11:22:51;100296.41;;;24.37;44.90
75497;BME280;64074;47.540;19.072;2023-08-31T11:25:58;100295.97;;;24.28;45.23
75497;BME280;64074;47.540;19.072;2023-08-31T11:29:01;100302.75;;;24.34;44.91
75497;BME280;64074;47.540;19.072;2023-08-31T11:32:08;100292.88;;;24.44;44.54
75497;BME280;64074;47.540;19.072;2023-08-31T11:35:11;100302.84;;;24.70;44.85
75497;BME280;64074;47.540;19.072;2023-08-31T11:38:14;100297.63;;;24.43;44.60
75497;BME280;64074;47.540;19.072;2023-08-31T11:41:17;100298.50;;;24.65;44.81
75497;BME280;64074;47.540;19.072;2023-08-31T11:44:20;100299.34;;;24.87;44.10
75497;BME280;64074;47.540;19.072;2023-08-31T11:47:23;100289.91;;;25.17;43.00
75497;BME280;64074;47.540;19.072;2023-08-31T11:50:27;100291.50;;;25.35;44.01
75497;BME280;64074;47.540;19.072;2023-08-31T11:53:38;100293.88;;;25.40;43.01
75497;BME280;64074;47.540;19.072;2023-08-31T11:56:45;100291.03;;;26.04;41.95
75497;BME280;64074;47.540;19.072;2023-08-31T11:59:51;100292.28;;;25.75;41.69
75497;BME280;64074;47.540;19.072;2023-08-31T12:02:59;100292.28;;;25.32;42.28
75497;BME280;64074;47.540;19.072;2023-08-31T12:06:02;100293.88;;;25.12;42.75
75497;BME280;64074;47.540;19.072;2023-08-31T12:09:10;100291.47;;;25.85;41.40
75497;BME280;64074;47.540;19.072;2023-08-31T12:12:20;100291.47;;;25.92;39.92
75497;BME280;64074;47.540;19.072;2023-08-31T12:15:30;100285.22;;;26.68;38.98
75497;BME280;64074;47.540;19.072;2023-08-31T12:18:37;100288.75;;;27.83;36.75
75497;BME280;64074;47.540;19.072;2023-08-31T12:21:42;100290.91;;;27.17;36.48
75497;BME280;64074;47.540;19.072;2023-08-31T12:24:46;100289.56;;;26.73;36.63
75497;BME280;64074;47.540;19.072;2023-08-31T12:27:49;100290.81;;;27.31;35.80
75497;BME280;64074;47.540;19.072;2023-08-31T12:41:01;100285.69;;;29.03;33.46
75497;BME280;64074;47.540;19.072;2023-08-31T12:44:06;100294.53;;;29.92;32.12
75497;BME280;64074;47.540;19.072;2023-08-31T12:47:09;100292.03;;;29.78;32.04
75497;BME280;64074;47.540;19.072;2023-08-31T12:50:13;100283.53;;;30.64;30.85
75497;BME280;64074;47.540;19.072;2023-08-31T12:53:16;100290.38;;;29.33;32.33
75497;BME280;64074;47.540;19.072;2023-08-31T12:56:20;100295.63;;;28.74;32.30
75497;BME280;64074;47.540;19.072;2023-08-31T12:59:26;100283.69;;;30.37;30.77
75497;BME280;64074;47.540;19.072;2023-08-31T13:02:29;100285.00;;;31.05;29.61
75497;BME280;64074;47.540;19.072;2023-08-31T13:05:33;100282.13;;;29.26;31.45
75497;BME280;64074;47.540;19.072;2023-08-31T13:08:37;100286.38;;;27.37;35.45
75497;BME280;64074;47.540;19.072;2023-08-31T13:11:41;100284.31;;;28.88;32.09
75497;BME280;64074;47.540;19.072;2023-08-31T13:14:44;100280.38;;;30.02;30.04
75497;BME280;64074;47.540;19.072;2023-08-31T13:17:47;100277.31;;;28.73;32.48
75497;BME280;64074;47.540;19.072;2023-08-31T13:20:53;100274.56;;;26.56;35.55
75497;BME280;64074;47.540;19.072;2023-08-31T13:23:57;100285.56;;;27.85;34.42
75497;BME280;64074;47.540;19.072;2023-08-31T13:27:00;100273.41;;;26.47;36.27
75497;BME280;64074;47.540;19.072;2023-08-31T13:30:04;100283.88;;;28.59;33.22
75497;BME280;64074;47.540;19.072;2023-08-31T13:33:08;100282.69;;;28.30;32.91
75497;BME280;64074;47.540;19.072;2023-08-31T13:36:13;100272.56;;;29.24;32.23
75497;BME280;64074;47.540;19.072;2023-08-31T13:39:17;100270.53;;;29.75;30.29
75497;BME280;64074;47.540;19.072;2023-08-31T13:42:21;100271.88;;;30.10;29.72
75497;BME280;64074;47.540;19.072;2023-08-31T13:45:23;100262.53;;;31.70;28.35
75497;BME280;64074;47.540;19.072;2023-08-31T13:48:26;100270.13;;;32.69;27.51
75497;BME280;64074;47.540;19.072;2023-08-31T13:51:29;100275.97;;;32.07;26.97
75497;BME280;64074;47.540;19.072;2023-08-31T13:54:33;100277.13;;;29.14;31.18
75497;BME280;64074;47.540;19.072;2023-08-31T13:57:37;100295.22;;;28.75;32.08
75497;BME280;64074;47.540;19.072;2023-08-31T14:00:41;100277.72;;;30.55;28.67
75497;BME280;64074;47.540;19.072;2023-08-31T14:03:44;100275.75;;;31.86;27.10
75497;BME280;64074;47.540;19.072;2023-08-31T14:06:48;100279.75;;;31.56;26.83
75497;BME280;64074;47.540;19.072;2023-08-31T14:09:51;100282.56;;;32.01;26.86
75497;BME280;64074;47.540;19.072;2023-08-31T14:12:54;100283.72;;;31.26;27.73
75497;BME280;64074;47.540;19.072;2023-08-31T14:15:57;100284.47;;;32.33;26.02
75497;BME280;64074;47.540;19.072;2023-08-31T14:19:01;100285.16;;;31.14;27.69
75497;BME280;64074;47.540;19.072;2023-08-31T14:22:04;100288.06;;;31.75;26.88
75497;BME280;64074;47.540;19.072;2023-08-31T14:25:08;100281.69;;;31.75;27.27
75497;BME280;64074;47.540;19.072;2023-08-31T14:28:11;100277.66;;;29.56;29.57
75497;BME280;64074;47.540;19.072;2023-08-31T14:31:15;100298.91;;;29.93;28.99
75497;BME280;64074;47.540;19.072;2023-08-31T14:34:18;100297.03;;;29.16;30.70
75497;BME280;64074;47.540;19.072;2023-08-31T14:37:21;100297.00;;;29.66;30.87
75497;BME280;64074;47.540;19.072;2023-08-31T14:40:24;100298.47;;;29.01;30.96
75497;BME280;64074;47.540;19.072;2023-08-31T14:43:27;100307.31;;;28.96;31.21
75497;BME280;64074;47.540;19.072;2023-08-31T14:46:31;100304.56;;;28.92;31.71
75497;BME280;64074;47.540;19.072;2023-08-31T14:49:34;100299.66;;;29.00;31.77
75497;BME280;64074;47.540;19.072;2023-08-31T14:52:37;100300.94;;;28.34;32.51
75497;BME280;64074;47.540;19.072;2023-08-31T14:55:41;100300.16;;;27.55;34.23
75497;BME280;64074;47.540;19.072;2023-08-31T14:58:44;100307.72;;;27.03;35.21
75497;BME280;64074;47.540;19.072;2023-08-31T15:01:47;100306.75;;;26.57;36.87
75497;BME280;64074;47.540;19.072;2023-08-31T15:04:50;100314.53;;;26.87;36.15
75497;BME280;64074;47.540;19.072;2023-08-31T15:07:53;100307.22;;;26.24;37.07
75497;BME280;64074;47.540;19.072;2023-08-31T15:10:56;100311.47;;;26.67;36.87
75497;BME280;64074;47.540;19.072;2023-08-31T15:14:00;100317.56;;;26.34;36.41
75497;BME280;64074;47.540;19.072;2023-08-31T15:17:07;100310.63;;;26.74;36.04
75497;BME280;64074;47.540;19.072;2023-08-31T15:20:11;100320.63;;;26.64;35.47
75497;BME280;64074;47.540;19.072;2023-08-31T15:23:14;100310.06;;;26.13;36.33
75497;BME280;64074;47.540;19.072;2023-08-31T15:26:17;100325.53;;;26.18;36.73
75497;BME280;64074;47.540;19.072;2023-08-31T15:29:21;100333.13;;;25.89;37.35
75497;BME280;64074;47.540;19.072;2023-08-31T15:32:25;100327.59;;;25.85;37.97
75497;BME280;64074;47.540;19.072;2023-08-31T15:35:28;100327.59;;;25.74;37.87
75497;BME280;64074;47.540;19.072;2023-08-31T15:38:33;100326.78;;;25.88;38.08
75497;BME280;64074;47.540;19.072;2023-08-31T15:41:36;100331.16;;;25.75;37.86
75497;BME280;64074;47.540;19.072;2023-08-31T15:44:40;100331.91;;;26.00;38.60
75497;BME280;64074;47.540;19.072;2023-08-31T15:47:44;100335.91;;;25.35;37.92
75497;BME280;64074;47.540;19.072;2023-08-31T15:50:47;100344.59;;;25.20;38.30
75497;BME280;64074;47.540;19.072;2023-08-31T15:53:52;100337.09;;;25.52;37.89
75497;BME280;64074;47.540;19.072;2023-08-31T15:56:55;100340.28;;;25.54;38.53
75497;BME280;64074;47.540;19.072;2023-08-31T16:00:00;100332.72;;;25.51;38.75
75497;BME280;64074;47.540;19.072;2023-08-31T16:03:02;100339.09;;;25.34;39.29
75497;BME280;64074;47.540;19.072;2023-08-31T16:06:06;100343.44;;;25.53;38.60
75497;BME280;64074;47.540;19.072;2023-08-31T16:09:11;100350.16;;;25.09;39.94
75497;BME280;64074;47.540;19.072;2023-08-31T16:12:14;100339.47;;;25.32;39.62
75497;BME280;64074;47.540;19.072;2023-08-31T16:15:18;100355.72;;;25.52;39.44
75497;BME280;64074;47.540;19.072;2023-08-31T16:18:20;100359.72;;;25.36;38.63
75497;BME280;64074;47.540;19.072;2023-08-31T16:21:23;100362.75;;;24.89;39.62
75497;BME280;64074;47.540;19.072;2023-08-31T16:24:27;100349.66;;;24.85;39.51